Time;durP1;ratioP1;P1;durP2;ratioP2;P2;SDS_P1;SDS_P2;PMS_P1;PMS_P2;Temp;Humidity;BMP_temperature;BMP_pressure;BME280_temperature;BME280_humidity;BME280_pressure;Samples;Min_cycle;Max_cycle;Signal;HPM_P1;HPM_P2
2024/01/19 00:00:44;;;;;;;;;;;19.40;38.60;;;;;;5071664;28;19927;-57
2024/01/19 00:03:11;;;;;;;;;;;19.40;38.50;;;;;;5057126;28;19959;-55
2024/01/19 00:05:38;;;;;;;;;;;19.40;38.50;;;;;;5055101;28;19920;-57
2024/01/19 00:08:05;;;;;;;;;;;19.40;38.40;;;;;;5055022;28;19927;-58
2024/01/19 00:10:33;;;;;;;;;;;19.40;38.50;;;;;;5069902;28;19942;-57
2024/01/19 00:13:00;;;;;;;;;;;19.40;38.40;;;;;;5070474;28;19933;-53
2024/01/19 00:15:27;;;;;;;;;;;19.40;38.40;;;;;;5058458;28;19977;-54
2024/01/19 00:17:54;;;;;;;;;;;19.40;38.40;;;;;;5067847;28;19921;-57
2024/01/19 00:20:21;;;;;;;;;;;19.40;38.30;;;;;;5072629;28;19924;-54
2024/01/19 00:22:47;;;;;;;;;;;19.40;38.30;;;;;;5072620;28;19920;-54
2024/01/19 00:25:14;;;;;;;;;;;19.40;38.30;;;;;;5071255;28;19977;-55
2024/01/19 00:27:42;;;;;;;;;;;19.40;38.30;;;;;;5053184;28;20019;-56
2024/01/19 00:30:09;;;;;;;;;;;19.40;38.30;;;;;;5069180;28;20319;-55
2024/01/19 00:32:36;;;;;;;;;;;19.30;38.20;;;;;;5054522;28;19932;-55
2024/01/19 00:35:04;;;;;;;;;;;19.30;38.10;;;;;;5058631;28;19924;-55
2024/01/19 00:37:30;;;;;;;;;;;19.30;38.10;;;;;;5053667;28;20208;-56
2024/01/19 00:39:57;;;;;;;;;;;19.30;38.10;;;;;;5056896;28;19946;-52
2024/01/19 00:42:24;;;;;;;;;;;19.30;38.10;;;;;;5071927;28;19925;-52
2024/01/19 00:44:52;;;;;;;;;;;19.30;38.00;;;;;;5052834;28;19943;-52
2024/01/19 00:47:19;;;;;;;;;;;19.30;38.10;;;;;;5051870;28;20265;-54
2024/01/19 00:49:45;;;;;;;;;;;19.30;38.00;;;;;;5056607;28;19966;-55
2024/01/19 00:52:12;;;;;;;;;;;19.30;38.00;;;;;;5071759;28;19982;-55
2024/01/19 00:54:39;;;;;;;;;;;19.30;38.00;;;;;;5056632;28;19920;-55
2024/01/19 00:57:06;;;;;;;;;;;19.30;38.00;;;;;;5070361;28;19964;-56
2024/01/19 00:59:33;;;;;;;;;;;19.30;38.00;;;;;;5071638;28;19920;-57
2024/01/19 01:02:02;;;;;;;;;;;19.30;38.00;;;;;;5071540;28;19928;-58
2024/01/19 01:04:29;;;;;;;;;;;19.30;37.90;;;;;;5052577;28;20390;-55
2024/01/19 01:06:56;;;;;;;;;;;19.30;37.90;;;;;;5055642;28;19925;-55
2024/01/19 01:09:24;;;;;;;;;;;19.30;37.90;;;;;;5054114;28;19920;-55
2024/01/19 01:11:51;;;;;;;;;;;19.30;37.90;;;;;;5054316;28;19980;-55
2024/01/19 01:14:17;;;;;;;;;;;19.20;37.90;;;;;;5051956;28;20471;-53
2024/01/19 01:16:45;;;;;;;;;;;19.20;37.90;;;;;;5053786;28;19959;-56
2024/01/19 01:19:13;;;;;;;;;;;19.20;37.90;;;;;;5054657;28;19987;-53
2024/01/19 01:21:40;;;;;;;;;;;19.30;37.90;;;;;;5050999;28;19932;-56
2024/01/19 01:24:07;;;;;;;;;;;19.20;37.90;;;;;;5069395;28;19921;-59
2024/01/19 01:26:34;;;;;;;;;;;19.20;37.90;;;;;;5050776;28;19920;-56
2024/01/19 01:29:01;;;;;;;;;;;19.20;37.90;;;;;;5070593;28;19927;-56
2024/01/19 01:31:28;;;;;;;;;;;19.20;37.90;;;;;;5054337;28;20023;-56
2024/01/19 01:33:55;;;;;;;;;;;19.20;37.90;;;;;;5052975;28;19968;-56
2024/01/19 01:36:23;;;;;;;;;;;19.20;37.90;;;;;;5054008;28;19934;-57
2024/01/19 01:38:50;;;;;;;;;;;19.20;37.90;;;;;;5053054;28;20381;-50
2024/01/19 01:41:17;;;;;;;;;;;19.20;37.90;;;;;;5050773;28;20297;-57
2024/01/19 01:43:44;;;;;;;;;;;19.20;37.80;;;;;;5071012;28;19926;-57
2024/01/19 01:46:11;;;;;;;;;;;19.20;37.90;;;;;;5069980;28;19932;-55
2024/01/19 01:48:37;;;;;;;;;;;19.20;37.80;;;;;;5055745;28;19920;-51
2024/01/19 01:51:04;;;;;;;;;;;19.20;37.80;;;;;;5051105;28;19921;-57
2024/01/19 01:53:32;;;;;;;;;;;19.20;37.80;;;;;;5055299;28;19924;-55
2024/01/19 01:55:59;;;;;;;;;;;19.20;37.80;;;;;;5051868;28;19995;-54
2024/01/19 01:58:26;;;;;;;;;;;19.20;37.80;;;;;;5070814;28;20041;-57
2024/01/19 02:00:52;;;;;;;;;;;19.20;37.80;;;;;;5067784;28;20259;-55
2024/01/19 02:03:26;;;;;;;;;;;19.20;37.80;;;;;;5036672;28;19954;-56
2024/01/19 02:05:53;;;;;;;;;;;19.20;37.80;;;;;;5057598;28;19925;-54
2024/01/19 02:08:19;;;;;;;;;;;19.20;37.70;;;;;;5052518;28;19920;-55
2024/01/19 02:10:57;;;;;;;;;;;19.20;37.70;;;;;;5071906;28;19927;-55
2024/01/19 02:13:23;;;;;;;;;;;19.20;37.70;;;;;;5051143;28;19920;-52
2024/01/19 02:15:50;;;;;;;;;;;19.20;37.70;;;;;;5055129;28;19976;-55
2024/01/19 02:18:17;;;;;;;;;;;19.20;37.70;;;;;;5066905;28;19926;-54
2024/01/19 02:20:46;;;;;;;;;;;19.20;37.70;;;;;;5051666;28;19966;-51
2024/01/19 02:23:13;;;;;;;;;;;19.20;37.70;;;;;;5077981;28;19928;-53
2024/01/19 02:25:41;;;;;;;;;;;19.20;37.70;;;;;;5077808;28;19932;-54
2024/01/19 02:28:08;;;;;;;;;;;19.20;37.60;;;;;;5066266;28;19978;-55
2024/01/19 02:30:35;;;;;;;;;;;19.20;37.60;;;;;;5084660;28;20362;-55
2024/01/19 02:33:01;;;;;;;;;;;19.20;37.60;;;;;;5066253;28;19950;-53
2024/01/19 02:35:28;;;;;;;;;;;19.20;37.60;;;;;;5067760;28;19932;-56
2024/01/19 02:37:55;;;;;;;;;;;19.20;37.60;;;;;;5069845;28;19936;-53
2024/01/19 02:40:22;;;;;;;;;;;19.20;37.60;;;;;;5068597;28;19927;-54
2024/01/19 02:42:50;;;;;;;;;;;19.20;37.60;;;;;;5088925;28;19998;-54
2024/01/19 02:45:16;;;;;;;;;;;19.10;37.40;;;;;;5079022;28;19920;-55
2024/01/19 02:47:43;;;;;;;;;;;19.10;37.40;;;;;;5063875;28;20242;-54
2024/01/19 02:50:10;;;;;;;;;;;19.10;37.40;;;;;;5062688;28;19924;-56
2024/01/19 02:52:37;;;;;;;;;;;19.10;37.40;;;;;;5068051;28;19920;-55
2024/01/19 02:55:04;;;;;;;;;;;19.10;37.40;;;;;;5069532;28;19927;-56
2024/01/19 02:57:32;;;;;;;;;;;19.10;37.40;;;;;;5065913;28;19932;-54
2024/01/19 03:00:00;;;;;;;;;;;19.10;37.40;;;;;;5065031;28;19979;-53
2024/01/19 03:02:26;;;;;;;;;;;19.10;37.40;;;;;;5068968;28;20802;-56
2024/01/19 03:04:54;;;;;;;;;;;19.10;37.40;;;;;;5048794;28;19924;-53
2024/01/19 03:07:22;;;;;;;;;;;19.10;37.40;;;;;;5068232;28;19927;-56
2024/01/19 03:09:49;;;;;;;;;;;19.10;37.40;;;;;;5069788;28;19924;-56
2024/01/19 03:12:16;;;;;;;;;;;19.10;37.30;;;;;;5087162;28;19931;-51
2024/01/19 03:14:42;;;;;;;;;;;19.10;37.30;;;;;;5082179;28;19943;-51
2024/01/19 03:17:11;;;;;;;;;;;19.10;37.40;;;;;;5063538;28;19924;-54
2024/01/19 03:19:37;;;;;;;;;;;19.10;37.40;;;;;;5063218;28;19925;-54
2024/01/19 03:22:04;;;;;;;;;;;19.10;37.40;;;;;;5063187;28;19985;-55
2024/01/19 03:24:31;;;;;;;;;;;19.10;37.40;;;;;;5082115;28;19985;-54
2024/01/19 03:26:57;;;;;;;;;;;19.10;37.40;;;;;;5080597;28;20069;-52
2024/01/19 03:29:26;;;;;;;;;;;19.10;37.40;;;;;;5069384;28;19920;-54
2024/01/19 03:31:53;;;;;;;;;;;19.10;37.40;;;;;;5088640;28;21145;-53
2024/01/19 03:34:21;;;;;;;;;;;19.10;37.40;;;;;;5086699;28;19991;-56
2024/01/19 03:36:48;;;;;;;;;;;19.10;37.40;;;;;;5084469;28;19966;-55
2024/01/19 03:39:15;;;;;;;;;;;19.10;37.40;;;;;;5082390;28;19924;-56
2024/01/19 03:41:41;;;;;;;;;;;19.10;37.40;;;;;;5065241;28;22420;-54
2024/01/19 03:44:08;;;;;;;;;;;19.10;37.40;;;;;;5058597;28;19924;-55
2024/01/19 03:46:37;;;;;;;;;;;19.10;37.40;;;;;;5080805;28;20278;-52
2024/01/19 03:49:03;;;;;;;;;;;19.10;37.40;;;;;;5083630;28;19974;-53
2024/01/19 03:51:32;;;;;;;;;;;19.00;37.30;;;;;;5081812;28;19920;-57
2024/01/19 03:53:58;;;;;;;;;;;19.10;37.40;;;;;;5083696;28;20017;-55
2024/01/19 03:56:25;;;;;;;;;;;19.10;37.40;;;;;;5066970;28;19977;-56
2024/01/19 03:58:52;;;;;;;;;;;19.10;37.30;;;;;;5062572;28;19925;-53
2024/01/19 04:01:19;;;;;;;;;;;19.10;37.30;;;;;;5057393;28;19966;-52
2024/01/19 04:03:45;;;;;;;;;;;19.10;37.30;;;;;;5077294;28;19966;-55
2024/01/19 04:06:12;;;;;;;;;;;19.10;37.30;;;;;;5064921;28;19928;-53
2024/01/19 04:08:40;;;;;;;;;;;19.10;37.30;;;;;;5062670;28;19939;-55
2024/01/19 04:11:07;;;;;;;;;;;19.10;37.40;;;;;;5065117;28;19931;-54
2024/01/19 04:13:34;;;;;;;;;;;19.10;37.30;;;;;;5084479;28;19924;-54
2024/01/19 04:16:00;;;;;;;;;;;19.10;37.30;;;;;;5064393;28;19958;-52
2024/01/19 04:18:27;;;;;;;;;;;19.10;37.40;;;;;;5081943;28;20126;-53
2024/01/19 04:20:54;;;;;;;;;;;19.10;37.30;;;;;;5065599;28;19932;-55
2024/01/19 04:23:21;;;;;;;;;;;19.10;37.30;;;;;;5054989;28;19954;-54
2024/01/19 04:25:49;;;;;;;;;;;19.10;37.30;;;;;;5081817;28;19924;-52
2024/01/19 04:28:15;;;;;;;;;;;19.10;37.30;;;;;;5065671;28;19921;-56
2024/01/19 04:30:42;;;;;;;;;;;19.10;37.30;;;;;;5063767;28;19928;-53
2024/01/19 04:33:09;;;;;;;;;;;19.10;37.30;;;;;;5065021;28;19920;-56
2024/01/19 04:35:36;;;;;;;;;;;19.00;37.20;;;;;;5061376;28;19982;-56
2024/01/19 04:38:02;;;;;;;;;;;19.00;37.20;;;;;;5080848;28;19966;-55
2024/01/19 04:40:29;;;;;;;;;;;19.10;37.20;;;;;;5065061;28;19990;-55
2024/01/19 04:42:57;;;;;;;;;;;19.00;37.10;;;;;;5077366;28;19925;-56
2024/01/19 04:45:24;;;;;;;;;;;19.00;37.10;;;;;;5077060;28;19950;-56
2024/01/19 04:47:50;;;;;;;;;;;19.00;37.10;;;;;;5064466;28;19924;-54
2024/01/19 04:50:17;;;;;;;;;;;19.00;37.10;;;;;;5062152;28;19924;-55
2024/01/19 04:52:44;;;;;;;;;;;19.00;37.10;;;;;;5081950;28;19977;-56
2024/01/19 04:55:11;;;;;;;;;;;19.00;37.10;;;;;;5062390;28;19920;-54
2024/01/19 04:57:37;;;;;;;;;;;19.00;37.10;;;;;;5082856;28;19925;-55
2024/01/19 05:00:06;;;;;;;;;;;19.00;37.10;;;;;;5060416;28;19920;-55
2024/01/19 05:02:33;;;;;;;;;;;19.00;37.10;;;;;;5076045;28;19920;-56
2024/01/19 05:05:00;;;;;;;;;;;19.00;37.10;;;;;;5060331;28;19925;-57
2024/01/19 05:07:27;;;;;;;;;;;19.00;37.10;;;;;;5081171;28;19924;-55
2024/01/19 05:09:54;;;;;;;;;;;19.00;37.10;;;;;;5061586;28;19930;-55
2024/01/19 05:12:20;;;;;;;;;;;19.00;37.10;;;;;;5056113;28;19928;-51
2024/01/19 05:14:47;;;;;;;;;;;19.00;37.10;;;;;;5076095;28;20339;-54
2024/01/19 05:17:15;;;;;;;;;;;19.00;37.10;;;;;;5063343;28;19932;-53
2024/01/19 05:19:42;;;;;;;;;;;19.00;37.10;;;;;;5080461;28;19925;-55
2024/01/19 05:22:09;;;;;;;;;;;19.00;37.10;;;;;;5059266;28;19924;-52
2024/01/19 05:24:36;;;;;;;;;;;19.00;37.10;;;;;;5075881;28;19921;-55
2024/01/19 05:27:03;;;;;;;;;;;19.00;37.10;;;;;;5076605;28;19931;-51
2024/01/19 05:29:29;;;;;;;;;;;19.00;37.80;;;;;;5060866;28;19924;-52
2024/01/19 05:31:56;;;;;;;;;;;19.00;37.10;;;;;;5079263;28;19921;-56
2024/01/19 05:34:24;;;;;;;;;;;19.00;37.20;;;;;;5060155;28;20311;-54
2024/01/19 05:36:51;;;;;;;;;;;19.00;37.20;;;;;;5051539;28;19924;-52
2024/01/19 05:39:18;;;;;;;;;;;19.00;37.10;;;;;;5052361;28;19928;-52
2024/01/19 05:41:44;;;;;;;;;;;19.00;37.10;;;;;;5050759;28;19932;-56
2024/01/19 05:44:11;;;;;;;;;;;19.00;37.10;;;;;;5056625;28;19920;-55
2024/01/19 05:46:38;;;;;;;;;;;19.00;37.10;;;;;;5071818;28;19966;-52
2024/01/19 05:49:05;;;;;;;;;;;19.00;37.10;;;;;;5060046;28;19938;-57
2024/01/19 05:51:33;;;;;;;;;;;19.00;37.10;;;;;;5082741;28;19924;-54
2024/01/19 05:53:59;;;;;;;;;;;19.00;37.10;;;;;;5058834;28;19921;-53
2024/01/19 05:56:26;;;;;;;;;;;19.00;37.10;;;;;;5054918;28;19928;-56
2024/01/19 05:58:53;;;;;;;;;;;19.00;37.10;;;;;;5047874;28;19928;-54
2024/01/19 06:01:21;;;;;;;;;;;19.00;37.10;;;;;;5052844;28;19967;-53
2024/01/19 06:03:47;;;;;;;;;;;19.00;37.10;;;;;;5058309;28;19950;-51
2024/01/19 06:06:14;;;;;;;;;;;19.00;37.10;;;;;;5056490;28;19928;-53
2024/01/19 06:08:43;;;;;;;;;;;19.00;37.10;;;;;;5058340;28;19924;-55
2024/01/19 06:11:09;;;;;;;;;;;19.00;37.10;;;;;;5052301;28;20076;-54
2024/01/19 06:13:36;;;;;;;;;;;19.00;37.70;;;;;;5074367;28;19924;-54
2024/01/19 06:16:03;;;;;;;;;;;19.00;37.10;;;;;;5076206;28;20037;-50
2024/01/19 06:18:30;;;;;;;;;;;19.00;37.10;;;;;;5052307;28;19928;-52
2024/01/19 06:21:00;;;;;;;;;;;19.00;37.10;;;;;;5074670;28;19925;-56
2024/01/19 06:23:27;;;;;;;;;;;19.00;37.10;;;;;;5059148;28;19939;-57
2024/01/19 06:25:55;;;;;;;;;;;19.00;37.10;;;;;;5078436;28;19927;-58
2024/01/19 06:28:22;;;;;;;;;;;19.00;37.10;;;;;;5055480;28;19924;-53
2024/01/19 06:30:48;;;;;;;;;;;19.00;37.20;;;;;;5063053;28;20026;-55
2024/01/19 06:33:15;;;;;;;;;;;19.00;37.20;;;;;;5056657;28;19925;-54
2024/01/19 06:35:42;;;;;;;;;;;19.00;37.20;;;;;;5050906;28;19970;-53
2024/01/19 06:38:08;;;;;;;;;;;19.00;37.20;;;;;;5056038;28;19936;-51
2024/01/19 06:40:35;;;;;;;;;;;19.00;37.10;;;;;;5050220;28;19932;-57
2024/01/19 06:43:03;;;;;;;;;;;19.00;37.20;;;;;;5075127;28;20225;-55
2024/01/19 06:45:30;;;;;;;;;;;19.00;37.20;;;;;;5060185;28;19920;-55
2024/01/19 06:47:57;;;;;;;;;;;19.00;37.10;;;;;;5064790;28;19955;-55
2024/01/19 06:50:24;;;;;;;;;;;19.00;37.10;;;;;;5082247;28;19928;-55
2024/01/19 06:52:52;;;;;;;;;;;19.00;37.10;;;;;;5066472;28;19924;-55
2024/01/19 06:55:19;;;;;;;;;;;19.00;37.20;;;;;;5049447;28;20040;-53
2024/01/19 06:57:45;;;;;;;;;;;19.00;37.20;;;;;;5075391;28;19927;-55
2024/01/19 07:00:17;;;;;;;;;;;19.00;37.10;;;;;;5072576;28;19925;-52
2024/01/19 07:02:44;;;;;;;;;;;19.00;37.10;;;;;;5052694;28;19920;-56
2024/01/19 07:05:10;;;;;;;;;;;19.00;37.20;;;;;;5047297;28;19928;-55
2024/01/19 07:07:37;;;;;;;;;;;19.00;37.20;;;;;;5068565;28;19920;-55
2024/01/19 07:10:04;;;;;;;;;;;19.00;37.20;;;;;;5049132;28;19920;-55
2024/01/19 07:12:31;;;;;;;;;;;19.00;37.20;;;;;;5065709;28;19925;-54
2024/01/19 07:14:58;;;;;;;;;;;19.00;37.20;;;;;;5057225;28;19920;-51
2024/01/19 07:17:26;;;;;;;;;;;19.00;37.30;;;;;;5055078;28;19921;-56
2024/01/19 07:19:53;;;;;;;;;;;19.00;37.30;;;;;;5066489;28;19968;-51
2024/01/19 07:22:20;;;;;;;;;;;19.00;37.30;;;;;;5046899;28;19967;-54
2024/01/19 07:24:46;;;;;;;;;;;19.00;37.40;;;;;;5055997;28;19920;-54
2024/01/19 07:27:13;;;;;;;;;;;19.00;37.40;;;;;;5074572;28;19929;-55
2024/01/19 07:29:40;;;;;;;;;;;19.00;37.40;;;;;;5053904;28;19921;-56
2024/01/19 07:32:07;;;;;;;;;;;19.00;37.40;;;;;;5047352;28;19921;-55
2024/01/19 07:34:35;;;;;;;;;;;19.00;37.40;;;;;;5071986;28;19932;-57
2024/01/19 07:37:02;;;;;;;;;;;19.00;37.40;;;;;;5054162;28;19921;-55
2024/01/19 07:39:29;;;;;;;;;;;19.00;37.50;;;;;;5049383;28;19930;-57
2024/01/19 07:41:56;;;;;;;;;;;19.00;37.40;;;;;;5056112;28;19927;-57
2024/01/19 07:44:23;;;;;;;;;;;19.00;37.50;;;;;;5058029;28;19921;-57
2024/01/19 07:46:49;;;;;;;;;;;19.00;36.00;;;;;;5072555;28;19920;-53
2024/01/19 07:49:20;;;;;;;;;;;18.90;30.60;;;;;;5073357;28;19927;-58
2024/01/19 07:51:48;;;;;;;;;;;18.80;30.50;;;;;;5073409;28;19920;-57
2024/01/19 07:54:16;;;;;;;;;;;18.70;32.20;;;;;;5073674;28;19962;-58
2024/01/19 07:56:43;;;;;;;;;;;18.60;33.30;;;;;;5073361;28;20122;-56
2024/01/19 07:59:09;;;;;;;;;;;18.50;33.50;;;;;;5056226;28;19920;-58
2024/01/19 08:01:36;;;;;;;;;;;18.50;34.00;;;;;;5055584;28;19965;-58
2024/01/19 08:04:04;;;;;;;;;;;18.50;34.40;;;;;;5055006;28;19994;-56
2024/01/19 08:06:30;;;;;;;;;;;18.50;34.70;;;;;;5072059;28;20204;-56
2024/01/19 08:08:58;;;;;;;;;;;18.60;35.00;;;;;;5054211;28;19920;-58
2024/01/19 08:11:26;;;;;;;;;;;18.60;35.20;;;;;;5058986;28;19928;-57
2024/01/19 08:13:52;;;;;;;;;;;18.60;35.40;;;;;;5034643;28;19925;-57
2024/01/19 08:16:19;;;;;;;;;;;18.60;35.50;;;;;;5053172;28;19924;-58
2024/01/19 08:18:46;;;;;;;;;;;18.70;35.70;;;;;;5034832;28;19927;-57
2024/01/19 08:21:13;;;;;;;;;;;18.70;35.80;;;;;;5034149;28;19932;-57
2024/01/19 08:23:39;;;;;;;;;;;18.70;35.80;;;;;;5041644;28;19924;-57
2024/01/19 08:26:08;;;;;;;;;;;18.70;36.00;;;;;;5054937;28;19927;-58
2024/01/19 08:28:35;;;;;;;;;;;18.70;36.00;;;;;;5071681;28;19932;-58
2024/01/19 08:31:02;;;;;;;;;;;18.80;36.20;;;;;;5060418;28;19925;-58
2024/01/19 08:33:29;;;;;;;;;;;18.80;36.30;;;;;;5057271;28;19925;-58
2024/01/19 08:35:56;;;;;;;;;;;18.80;36.30;;;;;;5054915;28;19986;-58
2024/01/19 08:38:23;;;;;;;;;;;18.80;36.40;;;;;;5070573;28;20024;-58
2024/01/19 08:40:50;;;;;;;;;;;18.80;36.40;;;;;;5054583;28;19928;-58
2024/01/19 08:43:18;;;;;;;;;;;18.90;36.60;;;;;;5054315;28;19924;-57
2024/01/19 08:45:44;;;;;;;;;;;18.90;36.60;;;;;;5052335;28;20309;-58
2024/01/19 08:48:12;;;;;;;;;;;18.90;36.70;;;;;;5071979;28;19978;-58
2024/01/19 08:50:39;;;;;;;;;;;18.90;36.70;;;;;;5054830;28;19963;-58
2024/01/19 08:53:06;;;;;;;;;;;18.90;36.70;;;;;;5054028;28;19921;-57
2024/01/19 08:55:33;;;;;;;;;;;19.00;36.80;;;;;;5071782;28;19920;-58
2024/01/19 08:58:00;;;;;;;;;;;19.00;36.90;;;;;;5054305;28;19920;-58
2024/01/19 09:00:28;;;;;;;;;;;19.00;36.90;;;;;;5055922;28;19924;-57
2024/01/19 09:02:55;;;;;;;;;;;19.00;36.90;;;;;;5071807;28;19921;-58
2024/01/19 09:05:22;;;;;;;;;;;19.00;37.00;;;;;;5054117;28;19920;-57
2024/01/19 09:07:48;;;;;;;;;;;19.00;37.00;;;;;;5071199;28;19920;-58
2024/01/19 09:10:15;;;;;;;;;;;19.00;37.00;;;;;;5054744;28;19970;-57
2024/01/19 09:12:42;;;;;;;;;;;19.00;37.10;;;;;;5051691;28;20066;-58
2024/01/19 09:15:09;;;;;;;;;;;19.00;37.10;;;;;;5071565;28;19932;-57
2024/01/19 09:17:37;;;;;;;;;;;19.00;37.10;;;;;;5055297;28;19925;-57
2024/01/19 09:20:05;;;;;;;;;;;19.10;37.30;;;;;;5068727;28;20358;-58
2024/01/19 09:22:31;;;;;;;;;;;19.10;37.30;;;;;;5054485;28;19921;-58
2024/01/19 09:24:58;;;;;;;;;;;19.10;37.30;;;;;;5053948;28;20043;-58
2024/01/19 09:27:25;;;;;;;;;;;19.10;37.40;;;;;;5053465;28;19920;-57
2024/01/19 09:29:52;;;;;;;;;;;19.10;37.40;;;;;;5053594;28;19920;-57
2024/01/19 09:32:19;;;;;;;;;;;19.10;37.40;;;;;;5053708;28;19924;-58
2024/01/19 09:34:47;;;;;;;;;;;19.10;37.40;;;;;;5052763;28;19946;-58
2024/01/19 09:37:13;;;;;;;;;;;19.20;37.50;;;;;;5052654;28;19940;-58
2024/01/19 09:39:40;;;;;;;;;;;19.20;37.50;;;;;;5054286;28;19966;-58
2024/01/19 09:42:08;;;;;;;;;;;19.20;37.50;;;;;;5071044;28;19924;-58
2024/01/19 09:44:35;;;;;;;;;;;19.20;37.50;;;;;;5069463;28;20169;-58
2024/01/19 09:47:14;;;;;;;;;;;19.20;37.60;;;;;;5070122;28;19920;-58
2024/01/19 09:49:45;;;;;;;;;;;19.20;37.60;;;;;;5053083;28;19920;-58
2024/01/19 09:52:16;;;;;;;;;;;19.20;37.60;;;;;;5052968;28;19944;-58
2024/01/19 09:54:43;;;;;;;;;;;19.20;37.60;;;;;;5053368;28;19995;-58
2024/01/19 09:57:10;;;;;;;;;;;19.20;37.60;;;;;;5070953;28;19921;-58
2024/01/19 09:59:37;;;;;;;;;;;19.20;37.60;;;;;;5052870;28;19921;-58
2024/01/19 10:02:04;;;;;;;;;;;19.20;37.60;;;;;;5052662;28;19932;-57
2024/01/19 10:04:31;;;;;;;;;;;19.20;37.60;;;;;;5052781;28;19924;-58
2024/01/19 10:06:57;;;;;;;;;;;19.20;37.60;;;;;;5052876;28;19978;-57
2024/01/19 10:09:26;;;;;;;;;;;19.20;37.70;;;;;;5070629;28;19928;-57
2024/01/19 10:11:53;;;;;;;;;;;19.20;37.70;;;;;;5053398;28;19925;-58
2024/01/19 10:14:20;;;;;;;;;;;19.30;37.70;;;;;;5070204;28;19920;-57
2024/01/19 10:16:48;;;;;;;;;;;19.20;37.70;;;;;;5054721;28;19921;-57
2024/01/19 10:19:16;;;;;;;;;;;19.30;37.80;;;;;;5052517;28;19921;-57
2024/01/19 10:21:43;;;;;;;;;;;19.30;37.80;;;;;;5070420;28;20011;-56
2024/01/19 10:24:10;;;;;;;;;;;19.30;37.80;;;;;;5070157;28;19973;-58
2024/01/19 10:26:39;;;;;;;;;;;19.30;37.80;;;;;;5070821;28;19921;-58
2024/01/19 10:29:12;;;;;;;;;;;19.30;37.80;;;;;;5068311;28;19924;-58
2024/01/19 10:31:40;;;;;;;;;;;19.30;37.80;;;;;;5053378;28;19920;-58
2024/01/19 10:34:07;;;;;;;;;;;19.30;37.80;;;;;;5052755;28;19921;-58
2024/01/19 10:36:40;;;;;;;;;;;19.30;37.90;;;;;;5049200;28;19978;-57
2024/01/19 10:39:16;;;;;;;;;;;19.30;37.90;;;;;;5050879;28;19920;-58
2024/01/19 10:41:44;;;;;;;;;;;19.30;37.90;;;;;;5052702;28;19920;-58
2024/01/19 10:44:11;;;;;;;;;;;19.30;37.90;;;;;;5054020;28;19924;-58
2024/01/19 10:46:38;;;;;;;;;;;19.30;37.90;;;;;;5074249;28;19974;-59
2024/01/19 10:49:05;;;;;;;;;;;19.30;38.00;;;;;;5056040;28;19920;-58
2024/01/19 10:51:33;;;;;;;;;;;19.30;38.00;;;;;;5056560;28;19928;-58
2024/01/19 10:54:01;;;;;;;;;;;19.30;38.00;;;;;;5074088;28;20037;-58
2024/01/19 10:56:27;;;;;;;;;;;19.30;38.00;;;;;;5057093;28;19986;-59
2024/01/19 10:58:55;;;;;;;;;;;19.30;38.00;;;;;;5056630;28;19993;-58
2024/01/19 11:01:22;;;;;;;;;;;19.30;38.00;;;;;;5074219;28;19951;-58
2024/01/19 11:03:49;;;;;;;;;;;19.30;38.00;;;;;;5056909;28;19924;-58
2024/01/19 11:06:17;;;;;;;;;;;19.30;38.10;;;;;;5072452;28;20011;-58
2024/01/19 11:08:44;;;;;;;;;;;19.30;38.70;;;;;;5067313;28;20161;-58
2024/01/19 11:11:10;;;;;;;;;;;19.30;38.10;;;;;;5054032;28;19920;-58
2024/01/19 11:13:38;;;;;;;;;;;19.40;38.20;;;;;;5055599;28;20163;-58
2024/01/19 11:16:08;;;;;;;;;;;19.30;38.10;;;;;;5054316;28;20011;-57
2024/01/19 11:18:34;;;;;;;;;;;19.40;38.20;;;;;;5063158;28;20042;-57
2024/01/19 11:21:01;;;;;;;;;;;19.30;38.10;;;;;;5053777;28;19974;-57
2024/01/19 11:23:28;;;;;;;;;;;19.30;38.20;;;;;;5057279;28;19974;-58
2024/01/19 11:26:00;;;;;;;;;;;19.30;38.20;;;;;;5052547;28;19925;-58
2024/01/19 11:28:29;;;;;;;;;;;19.40;38.30;;;;;;5070928;28;19928;-57
2024/01/19 11:31:03;;;;;;;;;;;19.30;38.20;;;;;;5075388;28;19924;-57
2024/01/19 11:33:32;;;;;;;;;;;19.30;38.20;;;;;;5072355;28;19921;-56
2024/01/19 11:36:02;;;;;;;;;;;19.40;38.30;;;;;;5054291;28;19990;-56
2024/01/19 11:38:40;;;;;;;;;;;19.40;38.30;;;;;;5069559;28;19921;-57
2024/01/19 11:41:07;;;;;;;;;;;19.40;38.30;;;;;;5055883;28;19947;-56
2024/01/19 11:43:38;;;;;;;;;;;19.40;38.30;;;;;;5072696;28;19924;-57
2024/01/19 11:46:04;;;;;;;;;;;19.30;38.30;;;;;;5048951;28;19972;-57
2024/01/19 11:48:42;;;;;;;;;;;19.30;38.30;;;;;;5050101;28;20316;-58
2024/01/19 11:51:09;;;;;;;;;;;19.40;38.40;;;;;;5053633;28;19920;-58
2024/01/19 11:53:55;;;;;;;;;;;19.30;38.30;;;;;;5058369;28;20188;-58
2024/01/19 11:56:22;;;;;;;;;;;19.40;38.40;;;;;;5070516;28;19956;-58
2024/01/19 11:58:48;;;;;;;;;;;19.30;38.30;;;;;;5070146;28;19932;-58
2024/01/19 12:01:15;;;;;;;;;;;19.40;38.40;;;;;;5053548;28;19929;-55
2024/01/19 12:03:43;;;;;;;;;;;19.40;38.40;;;;;;5072708;28;19943;-55
2024/01/19 12:06:11;;;;;;;;;;;19.40;38.40;;;;;;5056920;28;19927;-58
2024/01/19 12:08:38;;;;;;;;;;;19.40;38.50;;;;;;5073090;28;19931;-58
2024/01/19 12:11:04;;;;;;;;;;;19.40;38.40;;;;;;5057334;28;19932;-58
2024/01/19 12:13:31;;;;;;;;;;;19.40;38.50;;;;;;5056342;28;19924;-58
2024/01/19 12:15:58;;;;;;;;;;;19.40;38.50;;;;;;5070538;28;19920;-58
2024/01/19 12:18:25;;;;;;;;;;;19.40;38.50;;;;;;5055807;28;19935;-58
2024/01/19 12:20:55;;;;;;;;;;;19.40;38.50;;;;;;5055022;28;19924;-58
2024/01/19 12:23:22;;;;;;;;;;;19.40;38.50;;;;;;5055275;28;20011;-58
2024/01/19 12:25:49;;;;;;;;;;;19.40;38.50;;;;;;5056724;28;19958;-58
2024/01/19 12:28:16;;;;;;;;;;;19.40;38.50;;;;;;5056261;28;19924;-59
2024/01/19 12:30:44;;;;;;;;;;;19.40;38.60;;;;;;5071964;28;19951;-58
2024/01/19 12:33:15;;;;;;;;;;;19.40;38.60;;;;;;5054552;28;19920;-58
2024/01/19 12:35:42;;;;;;;;;;;19.40;38.50;;;;;;5054171;28;19921;-58
2024/01/19 12:38:10;;;;;;;;;;;19.40;38.60;;;;;;5037306;28;20017;-57
2024/01/19 12:40:38;;;;;;;;;;;19.40;38.60;;;;;;5052139;28;20375;-58
2024/01/19 12:43:05;;;;;;;;;;;19.40;38.60;;;;;;5072447;28;20102;-58
2024/01/19 12:45:32;;;;;;;;;;;19.40;38.60;;;;;;5052768;28;19932;-58
2024/01/19 12:48:00;;;;;;;;;;;19.40;38.60;;;;;;5070840;28;19942;-58
2024/01/19 12:50:26;;;;;;;;;;;19.40;38.60;;;;;;5054033;28;19991;-58
2024/01/19 12:52:53;;;;;;;;;;;19.40;38.70;;;;;;5067459;28;19931;-58
2024/01/19 12:55:27;;;;;;;;;;;19.40;38.70;;;;;;5053388;28;19925;-57
2024/01/19 12:57:54;;;;;;;;;;;19.40;38.70;;;;;;5063870;28;19924;-57
2024/01/19 13:00:23;;;;;;;;;;;19.40;38.70;;;;;;5051521;28;19920;-57
2024/01/19 13:02:52;;;;;;;;;;;19.40;38.70;;;;;;5050300;28;19939;-58
2024/01/19 13:05:19;;;;;;;;;;;19.40;38.70;;;;;;5048196;28;19924;-58
2024/01/19 13:07:46;;;;;;;;;;;19.40;38.70;;;;;;5054416;28;20356;-57
2024/01/19 13:10:15;;;;;;;;;;;19.40;38.70;;;;;;5049618;28;19927;-58
2024/01/19 13:12:44;;;;;;;;;;;19.40;38.80;;;;;;5051380;28;20011;-58
2024/01/19 13:15:10;;;;;;;;;;;19.40;38.70;;;;;;5049560;28;19927;-58
2024/01/19 13:17:38;;;;;;;;;;;19.40;38.70;;;;;;5052669;28;20015;-59
2024/01/19 13:20:06;;;;;;;;;;;19.40;38.70;;;;;;5055696;28;19921;-59
2024/01/19 13:22:33;;;;;;;;;;;19.40;38.80;;;;;;5052816;28;19920;-59
2024/01/19 13:24:59;;;;;;;;;;;19.40;38.70;;;;;;5047531;28;19924;-57
2024/01/19 13:27:27;;;;;;;;;;;19.40;38.80;;;;;;5050568;28;19932;-58
2024/01/19 13:29:55;;;;;;;;;;;19.40;38.70;;;;;;5064098;28;19928;-58
2024/01/19 13:32:23;;;;;;;;;;;19.40;38.80;;;;;;5066233;28;19935;-55
2024/01/19 13:34:50;;;;;;;;;;;19.40;38.80;;;;;;5053115;28;20064;-59
2024/01/19 13:37:17;;;;;;;;;;;19.40;38.80;;;;;;5069403;28;19924;-59
2024/01/19 13:39:45;;;;;;;;;;;19.50;38.80;;;;;;5059288;28;19936;-58
2024/01/19 13:42:12;;;;;;;;;;;19.50;38.80;;;;;;5052951;28;19936;-59
2024/01/19 13:44:38;;;;;;;;;;;19.50;38.80;;;;;;5070424;28;19943;-58
2024/01/19 13:47:07;;;;;;;;;;;19.40;38.80;;;;;;5055291;28;19921;-53
2024/01/19 13:49:33;;;;;;;;;;;19.40;38.80;;;;;;5070284;28;19928;-50
2024/01/19 13:52:00;;;;;;;;;;;19.50;38.70;;;;;;5064483;28;20328;-49
2024/01/19 13:54:27;;;;;;;;;;;19.50;38.40;;;;;;5048111;28;19970;-56
2024/01/19 13:56:53;;;;;;;;;;;19.40;38.00;;;;;;5070841;28;19920;-57
2024/01/19 13:59:20;;;;;;;;;;;19.40;38.00;;;;;;5050266;28;19921;-59
2024/01/19 14:01:47;;;;;;;;;;;19.40;38.10;;;;;;5070379;28;20161;-58
2024/01/19 14:04:15;;;;;;;;;;;19.40;38.20;;;;;;5067104;28;19928;-56
2024/01/19 14:06:42;;;;;;;;;;;19.40;38.30;;;;;;5052036;28;19927;-55
2024/01/19 14:09:09;;;;;;;;;;;19.40;38.30;;;;;;5070251;28;19943;-57
2024/01/19 14:11:35;;;;;;;;;;;19.40;38.30;;;;;;5072652;28;19925;-58
2024/01/19 14:14:03;;;;;;;;;;;19.40;38.40;;;;;;5052153;28;19950;-55
2024/01/19 14:16:30;;;;;;;;;;;19.40;38.40;;;;;;5042550;28;19927;-55